sensor_id;sensor_type;location;lat;lon;timestamp;P1;durP1;ratioP1;P2;durP2;ratioP2
16737;SDS011;17906;47.684;10.806;2024-01-25T00:01:12;4.33;;;1.20;;
16737;SDS011;17906;47.684;10.806;2024-01-25T00:03:43;3.97;;;1.00;;
16737;SDS011;17906;47.684;10.806;2024-01-25T00:06:09;5.00;;;1.30;;
16737;SDS011;17906;47.684;10.806;2024-01-25T00:08:36;3.37;;;1.03;;
16737;SDS011;17906;47.684;10.806;2024-01-25T00:11:03;4.33;;;1.10;;
16737;SDS011;17906;47.684;10.806;2024-01-25T00:13:30;4.93;;;1.23;;
16737;SDS011;17906;47.684;10.806;2024-01-25T00:15:56;5.70;;;1.30;;
16737;SDS011;17906;47.684;10.806;2024-01-25T00:18:23;7.20;;;1.57;;
16737;SDS011;17906;47.684;10.806;2024-01-25T00:20:51;7.23;;;1.30;;
16737;SDS011;17906;47.684;10.806;2024-01-25T00:23:17;10.43;;;1.50;;
16737;SDS011;17906;47.684;10.806;2024-01-25T00:25:44;6.87;;;1.30;;
16737;SDS011;17906;47.684;10.806;2024-01-25T00:28:11;12.17;;;1.77;;
16737;SDS011;17906;47.684;10.806;2024-01-25T00:30:38;6.60;;;1.10;;
16737;SDS011;17906;47.684;10.806;2024-01-25T00:33:05;6.00;;;1.30;;
16737;SDS011;17906;47.684;10.806;2024-01-25T00:35:32;8.50;;;1.27;;
16737;SDS011;17906;47.684;10.806;2024-01-25T00:38:00;5.20;;;1.17;;
16737;SDS011;17906;47.684;10.806;2024-01-25T00:40:27;6.07;;;1.37;;
16737;SDS011;17906;47.684;10.806;2024-01-25T00:42:55;11.10;;;1.30;;
16737;SDS011;17906;47.684;10.806;2024-01-25T00:45:22;5.03;;;0.90;;
16737;SDS011;17906;47.684;10.806;2024-01-25T00:47:49;7.13;;;1.37;;
16737;SDS011;17906;47.684;10.806;2024-01-25T00:50:17;5.70;;;1.10;;
16737;SDS011;17906;47.684;10.806;2024-01-25T00:52:46;3.27;;;1.17;;
16737;SDS011;17906;47.684;10.806;2024-01-25T00:55:15;6.07;;;1.37;;
16737;SDS011;17906;47.684;10.806;2024-01-25T00:57:42;7.43;;;1.90;;
16737;SDS011;17906;47.684;10.806;2024-01-25T01:00:10;11.57;;;1.47;;
16737;SDS011;17906;47.684;10.806;2024-01-25T01:02:39;8.47;;;1.70;;
16737;SDS011;17906;47.684;10.806;2024-01-25T01:05:09;6.97;;;1.97;;
16737;SDS011;17906;47.684;10.806;2024-01-25T01:07:36;5.73;;;1.30;;
16737;SDS011;17906;47.684;10.806;2024-01-25T01:10:05;9.93;;;1.43;;
16737;SDS011;17906;47.684;10.806;2024-01-25T01:12:33;8.57;;;1.50;;
16737;SDS011;17906;47.684;10.806;2024-01-25T01:15:00;12.07;;;1.37;;
16737;SDS011;17906;47.684;10.806;2024-01-25T01:17:27;13.77;;;1.60;;
16737;SDS011;17906;47.684;10.806;2024-01-25T01:19:54;3.87;;;1.40;;
16737;SDS011;17906;47.684;10.806;2024-01-25T01:22:20;5.03;;;1.23;;
16737;SDS011;17906;47.684;10.806;2024-01-25T01:24:47;8.57;;;1.57;;
16737;SDS011;17906;47.684;10.806;2024-01-25T01:27:14;12.67;;;1.97;;
16737;SDS011;17906;47.684;10.806;2024-01-25T01:29:41;6.67;;;2.03;;
16737;SDS011;17906;47.684;10.806;2024-01-25T01:32:08;6.93;;;1.40;;
16737;SDS011;17906;47.684;10.806;2024-01-25T01:34:35;6.83;;;1.90;;
16737;SDS011;17906;47.684;10.806;2024-01-25T01:37:01;5.27;;;1.20;;
16737;SDS011;17906;47.684;10.806;2024-01-25T01:39:28;2.77;;;0.97;;
16737;SDS011;17906;47.684;10.806;2024-01-25T01:41:55;6.27;;;1.17;;
16737;SDS011;17906;47.684;10.806;2024-01-25T01:44:21;3.13;;;0.70;;
16737;SDS011;17906;47.684;10.806;2024-01-25T01:46:49;3.50;;;0.87;;
16737;SDS011;17906;47.684;10.806;2024-01-25T01:49:16;2.40;;;0.67;;
16737;SDS011;17906;47.684;10.806;2024-01-25T01:51:43;6.27;;;1.47;;
16737;SDS011;17906;47.684;10.806;2024-01-25T01:54:11;3.13;;;0.90;;
16737;SDS011;17906;47.684;10.806;2024-01-25T01:56:38;3.80;;;0.63;;
16737;SDS011;17906;47.684;10.806;2024-01-25T01:59:07;3.23;;;0.67;;
16737;SDS011;17906;47.684;10.806;2024-01-25T02:01:35;4.27;;;0.87;;
16737;SDS011;17906;47.684;10.806;2024-01-25T02:04:04;2.10;;;0.57;;
16737;SDS011;17906;47.684;10.806;2024-01-25T02:06:30;2.83;;;0.50;;
16737;SDS011;17906;47.684;10.806;2024-01-25T02:08:57;1.93;;;0.70;;
16737;SDS011;17906;47.684;10.806;2024-01-25T02:11:24;2.27;;;0.67;;
16737;SDS011;17906;47.684;10.806;2024-01-25T02:13:51;4.27;;;0.60;;
16737;SDS011;17906;47.684;10.806;2024-01-25T02:16:17;3.73;;;0.63;;
16737;SDS011;17906;47.684;10.806;2024-01-25T02:18:45;2.30;;;0.63;;
16737;SDS011;17906;47.684;10.806;2024-01-25T02:21:13;2.73;;;0.60;;
16737;SDS011;17906;47.684;10.806;2024-01-25T02:23:41;4.17;;;0.77;;
16737;SDS011;17906;47.684;10.806;2024-01-25T02:26:08;3.97;;;0.80;;
16737;SDS011;17906;47.684;10.806;2024-01-25T02:28:35;3.27;;;0.70;;
16737;SDS011;17906;47.684;10.806;2024-01-25T02:31:02;11.00;;;1.23;;
16737;SDS011;17906;47.684;10.806;2024-01-25T02:33:29;4.03;;;0.63;;
16737;SDS011;17906;47.684;10.806;2024-01-25T02:35:55;2.73;;;0.70;;
16737;SDS011;17906;47.684;10.806;2024-01-25T02:38:22;5.60;;;0.60;;
16737;SDS011;17906;47.684;10.806;2024-01-25T02:40:50;3.13;;;0.50;;
16737;SDS011;17906;47.684;10.806;2024-01-25T02:43:18;3.27;;;0.50;;
16737;SDS011;17906;47.684;10.806;2024-01-25T02:45:45;3.10;;;0.77;;
16737;SDS011;17906;47.684;10.806;2024-01-25T02:48:13;6.50;;;0.80;;
16737;SDS011;17906;47.684;10.806;2024-01-25T02:50:40;2.17;;;0.57;;
16737;SDS011;17906;47.684;10.806;2024-01-25T02:53:06;3.37;;;0.53;;
16737;SDS011;17906;47.684;10.806;2024-01-25T02:55:33;2.57;;;0.83;;
16737;SDS011;17906;47.684;10.806;2024-01-25T02:58:01;2.60;;;0.70;;
16737;SDS011;17906;47.684;10.806;2024-01-25T03:00:27;2.90;;;0.83;;
16737;SDS011;17906;47.684;10.806;2024-01-25T03:02:54;9.17;;;0.90;;
16737;SDS011;17906;47.684;10.806;2024-01-25T03:05:21;3.03;;;0.70;;
16737;SDS011;17906;47.684;10.806;2024-01-25T03:07:47;2.60;;;0.50;;
16737;SDS011;17906;47.684;10.806;2024-01-25T03:10:14;5.27;;;0.90;;
16737;SDS011;17906;47.684;10.806;2024-01-25T03:12:41;2.80;;;0.60;;
16737;SDS011;17906;47.684;10.806;2024-01-25T03:15:09;2.90;;;0.50;;
16737;SDS011;17906;47.684;10.806;2024-01-25T03:17:37;2.90;;;0.40;;
16737;SDS011;17906;47.684;10.806;2024-01-25T03:20:04;1.53;;;0.50;;
16737;SDS011;17906;47.684;10.806;2024-01-25T03:22:32;6.87;;;0.80;;
16737;SDS011;17906;47.684;10.806;2024-01-25T03:24:58;6.33;;;1.00;;
16737;SDS011;17906;47.684;10.806;2024-01-25T03:27:25;2.83;;;0.60;;
16737;SDS011;17906;47.684;10.806;2024-01-25T03:29:51;2.00;;;0.60;;
16737;SDS011;17906;47.684;10.806;2024-01-25T03:32:20;6.13;;;1.20;;
16737;SDS011;17906;47.684;10.806;2024-01-25T03:34:46;2.80;;;0.80;;
16737;SDS011;17906;47.684;10.806;2024-01-25T03:37:13;4.00;;;0.90;;
16737;SDS011;17906;47.684;10.806;2024-01-25T03:39:39;2.70;;;0.67;;
16737;SDS011;17906;47.684;10.806;2024-01-25T03:42:06;4.70;;;0.73;;
16737;SDS011;17906;47.684;10.806;2024-01-25T03:44:32;4.73;;;0.83;;
16737;SDS011;17906;47.684;10.806;2024-01-25T03:46:59;4.43;;;1.00;;
16737;SDS011;17906;47.684;10.806;2024-01-25T03:49:27;4.40;;;0.80;;
16737;SDS011;17906;47.684;10.806;2024-01-25T03:51:54;5.20;;;0.70;;
16737;SDS011;17906;47.684;10.806;2024-01-25T03:54:21;4.60;;;0.70;;
16737;SDS011;17906;47.684;10.806;2024-01-25T03:56:47;4.37;;;0.90;;
16737;SDS011;17906;47.684;10.806;2024-01-25T03:59:14;2.27;;;0.60;;
16737;SDS011;17906;47.684;10.806;2024-01-25T04:01:41;6.67;;;1.33;;
16737;SDS011;17906;47.684;10.806;2024-01-25T04:04:08;4.87;;;0.50;;
16737;SDS011;17906;47.684;10.806;2024-01-25T04:06:37;3.80;;;0.63;;
16737;SDS011;17906;47.684;10.806;2024-01-25T04:09:05;2.07;;;0.80;;
16737;SDS011;17906;47.684;10.806;2024-01-25T04:11:31;3.83;;;0.83;;
16737;SDS011;17906;47.684;10.806;2024-01-25T04:13:58;3.53;;;0.60;;
16737;SDS011;17906;47.684;10.806;2024-01-25T04:16:26;2.93;;;0.77;;
16737;SDS011;17906;47.684;10.806;2024-01-25T04:18:52;5.00;;;0.83;;
16737;SDS011;17906;47.684;10.806;2024-01-25T04:21:18;2.27;;;0.63;;
16737;SDS011;17906;47.684;10.806;2024-01-25T04:23:46;3.20;;;0.70;;
16737;SDS011;17906;47.684;10.806;2024-01-25T04:26:13;2.20;;;0.83;;
16737;SDS011;17906;47.684;10.806;2024-01-25T04:28:40;1.10;;;0.67;;
16737;SDS011;17906;47.684;10.806;2024-01-25T04:31:07;3.30;;;0.73;;
16737;SDS011;17906;47.684;10.806;2024-01-25T04:33:34;5.33;;;0.83;;
16737;SDS011;17906;47.684;10.806;2024-01-25T04:36:00;4.93;;;0.60;;
16737;SDS011;17906;47.684;10.806;2024-01-25T04:38:27;6.20;;;0.73;;
16737;SDS011;17906;47.684;10.806;2024-01-25T04:40:55;3.30;;;1.10;;
16737;SDS011;17906;47.684;10.806;2024-01-25T04:43:21;3.47;;;0.70;;
16737;SDS011;17906;47.684;10.806;2024-01-25T04:45:48;3.87;;;0.87;;
16737;SDS011;17906;47.684;10.806;2024-01-25T04:48:14;1.23;;;0.50;;
16737;SDS011;17906;47.684;10.806;2024-01-25T04:50:41;5.60;;;0.90;;
16737;SDS011;17906;47.684;10.806;2024-01-25T04:53:08;4.77;;;0.90;;
16737;SDS011;17906;47.684;10.806;2024-01-25T04:55:35;1.73;;;0.60;;
16737;SDS011;17906;47.684;10.806;2024-01-25T04:58:03;4.97;;;0.70;;
16737;SDS011;17906;47.684;10.806;2024-01-25T05:00:30;3.90;;;0.90;;
16737;SDS011;17906;47.684;10.806;2024-01-25T05:02:57;1.23;;;0.60;;
16737;SDS011;17906;47.684;10.806;2024-01-25T05:05:23;2.83;;;1.27;;
16737;SDS011;17906;47.684;10.806;2024-01-25T05:07:50;4.10;;;0.60;;
16737;SDS011;17906;47.684;10.806;2024-01-25T05:10:16;1.10;;;0.57;;
16737;SDS011;17906;47.684;10.806;2024-01-25T05:12:43;2.00;;;0.60;;
16737;SDS011;17906;47.684;10.806;2024-01-25T05:15:11;2.27;;;0.70;;
16737;SDS011;17906;47.684;10.806;2024-01-25T05:17:38;3.37;;;0.73;;
16737;SDS011;17906;47.684;10.806;2024-01-25T05:20:05;5.30;;;0.70;;
16737;SDS011;17906;47.684;10.806;2024-01-25T05:22:32;2.13;;;0.70;;
16737;SDS011;17906;47.684;10.806;2024-01-25T05:25:05;1.57;;;0.60;;
16737;SDS011;17906;47.684;10.806;2024-01-25T05:27:33;4.27;;;0.90;;
16737;SDS011;17906;47.684;10.806;2024-01-25T05:30:00;2.00;;;0.60;;
16737;SDS011;17906;47.684;10.806;2024-01-25T05:32:28;1.57;;;0.43;;
16737;SDS011;17906;47.684;10.806;2024-01-25T05:34:55;1.10;;;0.40;;
16737;SDS011;17906;47.684;10.806;2024-01-25T05:37:21;2.37;;;0.47;;
16737;SDS011;17906;47.684;10.806;2024-01-25T05:39:48;1.57;;;0.60;;
16737;SDS011;17906;47.684;10.806;2024-01-25T05:42:15;1.40;;;0.50;;
16737;SDS011;17906;47.684;10.806;2024-01-25T05:44:41;2.03;;;0.67;;
16737;SDS011;17906;47.684;10.806;2024-01-25T05:47:08;3.60;;;0.80;;
16737;SDS011;17906;47.684;10.806;2024-01-25T05:49:36;1.20;;;0.40;;
16737;SDS011;17906;47.684;10.806;2024-01-25T05:52:02;2.37;;;0.60;;
16737;SDS011;17906;47.684;10.806;2024-01-25T05:54:29;2.33;;;0.50;;
16737;SDS011;17906;47.684;10.806;2024-01-25T05:56:56;1.80;;;0.70;;
16737;SDS011;17906;47.684;10.806;2024-01-25T05:59:22;0.50;;;0.30;;
16737;SDS011;17906;47.684;10.806;2024-01-25T06:01:49;1.77;;;0.60;;
16737;SDS011;17906;47.684;10.806;2024-01-25T06:04:16;1.53;;;0.47;;
16737;SDS011;17906;47.684;10.806;2024-01-25T06:06:44;1.40;;;0.50;;
16737;SDS011;17906;47.684;10.806;2024-01-25T06:09:10;0.50;;;0.40;;
16737;SDS011;17906;47.684;10.806;2024-01-25T06:11:37;2.40;;;0.63;;
16737;SDS011;17906;47.684;10.806;2024-01-25T06:14:04;1.53;;;0.60;;
16737;SDS011;17906;47.684;10.806;2024-01-25T06:16:31;1.30;;;0.60;;
16737;SDS011;17906;47.684;10.806;2024-01-25T06:18:58;4.73;;;0.90;;
16737;SDS011;17906;47.684;10.806;2024-01-25T06:21:25;2.77;;;0.63;;
16737;SDS011;17906;47.684;10.806;2024-01-25T06:23:53;1.17;;;0.60;;
16737;SDS011;17906;47.684;10.806;2024-01-25T06:26:19;3.00;;;1.13;;
16737;SDS011;17906;47.684;10.806;2024-01-25T06:28:46;4.47;;;0.90;;
16737;SDS011;17906;47.684;10.806;2024-01-25T06:31:12;2.40;;;0.70;;
16737;SDS011;17906;47.684;10.806;2024-01-25T06:33:39;1.80;;;0.63;;
16737;SDS011;17906;47.684;10.806;2024-01-25T06:36:06;1.30;;;0.60;;
16737;SDS011;17906;47.684;10.806;2024-01-25T06:38:33;1.53;;;0.50;;
16737;SDS011;17906;47.684;10.806;2024-01-25T06:41:02;1.17;;;0.77;;
16737;SDS011;17906;47.684;10.806;2024-01-25T06:43:29;4.70;;;1.40;;
16737;SDS011;17906;47.684;10.806;2024-01-25T06:45:56;2.97;;;1.10;;
16737;SDS011;17906;47.684;10.806;2024-01-25T06:48:22;2.57;;;0.70;;
16737;SDS011;17906;47.684;10.806;2024-01-25T06:50:49;1.83;;;0.80;;
16737;SDS011;17906;47.684;10.806;2024-01-25T06:53:16;4.23;;;1.40;;
16737;SDS011;17906;47.684;10.806;2024-01-25T06:55:42;2.87;;;1.00;;
16737;SDS011;17906;47.684;10.806;2024-01-25T06:58:10;3.73;;;1.30;;
16737;SDS011;17906;47.684;10.806;2024-01-25T07:00:38;3.07;;;1.40;;
16737;SDS011;17906;47.684;10.806;2024-01-25T07:03:07;2.67;;;0.77;;
16737;SDS011;17906;47.684;10.806;2024-01-25T07:05:33;3.80;;;0.70;;
16737;SDS011;17906;47.684;10.806;2024-01-25T07:08:00;1.97;;;0.87;;
16737;SDS011;17906;47.684;10.806;2024-01-25T07:10:27;2.10;;;1.20;;
16737;SDS011;17906;47.684;10.806;2024-01-25T07:12:54;2.77;;;0.93;;
16737;SDS011;17906;47.684;10.806;2024-01-25T07:15:22;4.07;;;1.03;;
16737;SDS011;17906;47.684;10.806;2024-01-25T07:17:49;1.80;;;0.70;;
16737;SDS011;17906;47.684;10.806;2024-01-25T07:20:15;4.03;;;1.00;;
16737;SDS011;17906;47.684;10.806;2024-01-25T07:22:42;1.63;;;0.70;;
16737;SDS011;17906;47.684;10.806;2024-01-25T07:25:08;3.50;;;0.90;;
16737;SDS011;17906;47.684;10.806;2024-01-25T07:27:35;2.13;;;0.83;;
16737;SDS011;17906;47.684;10.806;2024-01-25T07:30:02;4.60;;;1.40;;
16737;SDS011;17906;47.684;10.806;2024-01-25T07:32:30;2.17;;;1.00;;
16737;SDS011;17906;47.684;10.806;2024-01-25T07:34:57;2.77;;;1.03;;
16737;SDS011;17906;47.684;10.806;2024-01-25T07:37:24;3.20;;;1.07;;
16737;SDS011;17906;47.684;10.806;2024-01-25T07:39:51;2.73;;;1.13;;
16737;SDS011;17906;47.684;10.806;2024-01-25T07:42:17;1.60;;;0.80;;
16737;SDS011;17906;47.684;10.806;2024-01-25T07:44:44;2.07;;;1.10;;
16737;SDS011;17906;47.684;10.806;2024-01-25T07:47:10;5.73;;;1.70;;
16737;SDS011;17906;47.684;10.806;2024-01-25T07:49:40;6.47;;;3.20;;
16737;SDS011;17906;47.684;10.806;2024-01-25T07:52:07;7.07;;;4.13;;
16737;SDS011;17906;47.684;10.806;2024-01-25T07:54:34;3.60;;;1.10;;
16737;SDS011;17906;47.684;10.806;2024-01-25T07:57:00;3.50;;;1.10;;
16737;SDS011;17906;47.684;10.806;2024-01-25T07:59:27;3.07;;;1.47;;
16737;SDS011;17906;47.684;10.806;2024-01-25T08:01:53;4.23;;;1.80;;
16737;SDS011;17906;47.684;10.806;2024-01-25T08:04:20;1.70;;;1.10;;
16737;SDS011;17906;47.684;10.806;2024-01-25T08:06:48;2.93;;;1.23;;
16737;SDS011;17906;47.684;10.806;2024-01-25T08:09:15;2.90;;;1.00;;
16737;SDS011;17906;47.684;10.806;2024-01-25T08:11:42;1.40;;;0.90;;
16737;SDS011;17906;47.684;10.806;2024-01-25T08:14:08;1.00;;;0.60;;
16737;SDS011;17906;47.684;10.806;2024-01-25T08:16:36;0.80;;;0.50;;
16737;SDS011;17906;47.684;10.806;2024-01-25T08:19:02;1.00;;;0.60;;
16737;SDS011;17906;47.684;10.806;2024-01-25T08:21:29;1.60;;;0.90;;
16737;SDS011;17906;47.684;10.806;2024-01-25T08:23:57;2.57;;;0.80;;
16737;SDS011;17906;47.684;10.806;2024-01-25T08:26:24;1.60;;;0.70;;
16737;SDS011;17906;47.684;10.806;2024-01-25T08:28:51;1.93;;;0.50;;
16737;SDS011;17906;47.684;10.806;2024-01-25T08:31:17;1.57;;;0.50;;
16737;SDS011;17906;47.684;10.806;2024-01-25T08:33:44;1.47;;;0.80;;
16737;SDS011;17906;47.684;10.806;2024-01-25T08:36:12;1.57;;;0.60;;
16737;SDS011;17906;47.684;10.806;2024-01-25T08:38:39;1.53;;;0.77;;
16737;SDS011;17906;47.684;10.806;2024-01-25T08:41:07;1.53;;;0.60;;
16737;SDS011;17906;47.684;10.806;2024-01-25T08:43:36;0.53;;;0.40;;
16737;SDS011;17906;47.684;10.806;2024-01-25T08:46:03;0.60;;;0.40;;
16737;SDS011;17906;47.684;10.806;2024-01-25T08:48:29;1.20;;;0.67;;
16737;SDS011;17906;47.684;10.806;2024-01-25T08:50:56;1.63;;;0.47;;
16737;SDS011;17906;47.684;10.806;2024-01-25T08:53:23;3.00;;;0.50;;
16737;SDS011;17906;47.684;10.806;2024-01-25T08:55:52;2.20;;;0.60;;
16737;SDS011;17906;47.684;10.806;2024-01-25T08:58:20;0.97;;;0.30;;
16737;SDS011;17906;47.684;10.806;2024-01-25T09:00:47;1.83;;;1.27;;
16737;SDS011;17906;47.684;10.806;2024-01-25T09:03:13;0.93;;;0.50;;
16737;SDS011;17906;47.684;10.806;2024-01-25T09:05:40;0.43;;;0.33;;
16737;SDS011;17906;47.684;10.806;2024-01-25T09:08:10;1.57;;;0.60;;
16737;SDS011;17906;47.684;10.806;2024-01-25T09:10:37;0.83;;;0.40;;
16737;SDS011;17906;47.684;10.806;2024-01-25T09:13:04;1.00;;;0.60;;
16737;SDS011;17906;47.684;10.806;2024-01-25T09:15:32;0.70;;;0.40;;
16737;SDS011;17906;47.684;10.806;2024-01-25T09:17:58;0.73;;;0.40;;
16737;SDS011;17906;47.684;10.806;2024-01-25T09:20:25;2.30;;;0.80;;
16737;SDS011;17906;47.684;10.806;2024-01-25T09:22:52;3.03;;;1.77;;
16737;SDS011;17906;47.684;10.806;2024-01-25T09:25:20;3.67;;;2.57;;
16737;SDS011;17906;47.684;10.806;2024-01-25T09:27:46;6.30;;;3.50;;
16737;SDS011;17906;47.684;10.806;2024-01-25T09:30:13;5.30;;;3.03;;
16737;SDS011;17906;47.684;10.806;2024-01-25T09:32:42;2.00;;;1.10;;
16737;SDS011;17906;47.684;10.806;2024-01-25T09:35:08;1.87;;;0.70;;
16737;SDS011;17906;47.684;10.806;2024-01-25T09:37:36;0.93;;;0.63;;
16737;SDS011;17906;47.684;10.806;2024-01-25T09:40:02;2.03;;;1.03;;
16737;SDS011;17906;47.684;10.806;2024-01-25T09:42:30;1.03;;;0.60;;
16737;SDS011;17906;47.684;10.806;2024-01-25T09:44:56;1.60;;;0.50;;
16737;SDS011;17906;47.684;10.806;2024-01-25T09:47:23;1.17;;;0.50;;
16737;SDS011;17906;47.684;10.806;2024-01-25T09:49:51;1.33;;;0.70;;
16737;SDS011;17906;47.684;10.806;2024-01-25T09:52:18;2.57;;;1.20;;
16737;SDS011;17906;47.684;10.806;2024-01-25T09:54:50;1.57;;;0.73;;
16737;SDS011;17906;47.684;10.806;2024-01-25T09:57:18;1.50;;;0.93;;
16737;SDS011;17906;47.684;10.806;2024-01-25T09:59:49;3.30;;;1.53;;
16737;SDS011;17906;47.684;10.806;2024-01-25T10:02:16;2.97;;;0.87;;
16737;SDS011;17906;47.684;10.806;2024-01-25T10:04:46;4.00;;;1.10;;
16737;SDS011;17906;47.684;10.806;2024-01-25T10:07:16;0.80;;;0.43;;
16737;SDS011;17906;47.684;10.806;2024-01-25T10:09:43;1.00;;;0.50;;
16737;SDS011;17906;47.684;10.806;2024-01-25T10:12:10;1.53;;;0.83;;
16737;SDS011;17906;47.684;10.806;2024-01-25T10:14:36;1.63;;;0.50;;
16737;SDS011;17906;47.684;10.806;2024-01-25T10:17:03;0.53;;;0.27;;
16737;SDS011;17906;47.684;10.806;2024-01-25T10:19:30;0.73;;;0.37;;
16737;SDS011;17906;47.684;10.806;2024-01-25T10:21:58;0.83;;;0.30;;
16737;SDS011;17906;47.684;10.806;2024-01-25T10:24:26;0.67;;;0.20;;
16737;SDS011;17906;47.684;10.806;2024-01-25T10:26:54;2.40;;;0.40;;
16737;SDS011;17906;47.684;10.806;2024-01-25T10:29:21;0.70;;;0.30;;
16737;SDS011;17906;47.684;10.806;2024-01-25T10:31:47;0.50;;;0.37;;
16737;SDS011;17906;47.684;10.806;2024-01-25T10:34:14;0.27;;;0.10;;
16737;SDS011;17906;47.684;10.806;2024-01-25T10:36:42;1.27;;;0.40;;
16737;SDS011;17906;47.684;10.806;2024-01-25T10:39:10;2.00;;;0.50;;
16737;SDS011;17906;47.684;10.806;2024-01-25T10:41:41;0.63;;;0.30;;
16737;SDS011;17906;47.684;10.806;2024-01-25T10:44:09;1.90;;;0.40;;
16737;SDS011;17906;47.684;10.806;2024-01-25T10:46:36;3.67;;;0.40;;
16737;SDS011;17906;47.684;10.806;2024-01-25T10:49:04;0.60;;;0.30;;
16737;SDS011;17906;47.684;10.806;2024-01-25T10:51:33;0.87;;;0.47;;
16737;SDS011;17906;47.684;10.806;2024-01-25T10:54:00;2.03;;;0.80;;
16737;SDS011;17906;47.684;10.806;2024-01-25T10:56:30;13.03;;;6.07;;
16737;SDS011;17906;47.684;10.806;2024-01-25T10:58:58;12.23;;;5.47;;
16737;SDS011;17906;47.684;10.806;2024-01-25T11:01:26;4.57;;;2.63;;
16737;SDS011;17906;47.684;10.806;2024-01-25T11:03:53;2.67;;;1.30;;
16737;SDS011;17906;47.684;10.806;2024-01-25T11:06:20;3.10;;;1.30;;
16737;SDS011;17906;47.684;10.806;2024-01-25T11:08:47;2.33;;;1.30;;
16737;SDS011;17906;47.684;10.806;2024-01-25T11:11:14;4.03;;;2.50;;
16737;SDS011;17906;47.684;10.806;2024-01-25T11:13:41;3.37;;;2.30;;
16737;SDS011;17906;47.684;10.806;2024-01-25T11:16:17;4.30;;;2.47;;
16737;SDS011;17906;47.684;10.806;2024-01-25T11:18:49;2.17;;;1.27;;
16737;SDS011;17906;47.684;10.806;2024-01-25T11:21:23;4.83;;;2.10;;
16737;SDS011;17906;47.684;10.806;2024-01-25T11:23:58;9.30;;;4.60;;
16737;SDS011;17906;47.684;10.806;2024-01-25T11:26:26;15.87;;;7.07;;
16737;SDS011;17906;47.684;10.806;2024-01-25T11:28:52;13.83;;;5.40;;
16737;SDS011;17906;47.684;10.806;2024-01-25T11:31:20;2.13;;;1.00;;
16737;SDS011;17906;47.684;10.806;2024-01-25T11:33:48;5.10;;;2.47;;
16737;SDS011;17906;47.684;10.806;2024-01-25T11:36:15;1.90;;;1.00;;
16737;SDS011;17906;47.684;10.806;2024-01-25T11:38:41;2.33;;;0.80;;
16737;SDS011;17906;47.684;10.806;2024-01-25T11:41:08;2.13;;;1.40;;
16737;SDS011;17906;47.684;10.806;2024-01-25T11:43:35;0.73;;;0.60;;
16737;SDS011;17906;47.684;10.806;2024-01-25T11:46:01;1.10;;;0.80;;
16737;SDS011;17906;47.684;10.806;2024-01-25T11:48:29;2.20;;;0.80;;
16737;SDS011;17906;47.684;10.806;2024-01-25T11:50:58;0.90;;;0.40;;
16737;SDS011;17906;47.684;10.806;2024-01-25T11:53:24;0.93;;;0.30;;
16737;SDS011;17906;47.684;10.806;2024-01-25T11:55:51;0.37;;;0.10;;
16737;SDS011;17906;47.684;10.806;2024-01-25T11:58:20;0.60;;;0.10;;
16737;SDS011;17906;47.684;10.806;2024-01-25T12:00:46;0.37;;;0.10;;
16737;SDS011;17906;47.684;10.806;2024-01-25T12:03:13;0.40;;;0.10;;
16737;SDS011;17906;47.684;10.806;2024-01-25T12:05:42;0.50;;;0.20;;
16737;SDS011;17906;47.684;10.806;2024-01-25T12:08:09;0.43;;;0.20;;
16737;SDS011;17906;47.684;10.806;2024-01-25T12:10:39;0.63;;;0.20;;
16737;SDS011;17906;47.684;10.806;2024-01-25T12:13:05;1.30;;;0.10;;
16737;SDS011;17906;47.684;10.806;2024-01-25T12:15:34;1.17;;;0.30;;
16737;SDS011;17906;47.684;10.806;2024-01-25T12:18:00;1.17;;;0.30;;
16737;SDS011;17906;47.684;10.806;2024-01-25T12:20:27;0.30;;;0.07;;
16737;SDS011;17906;47.684;10.806;2024-01-25T12:22:56;0.20;;;0.10;;
16737;SDS011;17906;47.684;10.806;2024-01-25T12:25:24;0.93;;;0.30;;
16737;SDS011;17906;47.684;10.806;2024-01-25T12:27:50;0.53;;;0.20;;
16737;SDS011;17906;47.684;10.806;2024-01-25T12:30:20;0.10;;;0.10;;
16737;SDS011;17906;47.684;10.806;2024-01-25T12:32:47;0.30;;;0.10;;
16737;SDS011;17906;47.684;10.806;2024-01-25T12:35:14;0.40;;;0.10;;
16737;SDS011;17906;47.684;10.806;2024-01-25T12:37:41;0.50;;;0.20;;
16737;SDS011;17906;47.684;10.806;2024-01-25T12:40:09;0.70;;;0.20;;
16737;SDS011;17906;47.684;10.806;2024-01-25T12:42:36;0.10;;;0.10;;
16737;SDS011;17906;47.684;10.806;2024-01-25T12:45:03;0.67;;;0.10;;
16737;SDS011;17906;47.684;10.806;2024-01-25T12:47:30;0.40;;;0.20;;
16737;SDS011;17906;47.684;10.806;2024-01-25T12:49:56;0.37;;;0.30;;
16737;SDS011;17906;47.684;10.806;2024-01-25T12:52:23;1.47;;;0.60;;
16737;SDS011;17906;47.684;10.806;2024-01-25T12:54:50;1.57;;;1.17;;
16737;SDS011;17906;47.684;10.806;2024-01-25T12:57:17;1.47;;;0.70;;
16737;SDS011;17906;47.684;10.806;2024-01-25T12:59:44;0.30;;;0.20;;
16737;SDS011;17906;47.684;10.806;2024-01-25T13:02:12;0.77;;;0.37;;
16737;SDS011;17906;47.684;10.806;2024-01-25T13:04:39;2.27;;;0.93;;
16737;SDS011;17906;47.684;10.806;2024-01-25T13:07:05;0.10;;;0.10;;
16737;SDS011;17906;47.684;10.806;2024-01-25T13:09:32;0.93;;;0.50;;
16737;SDS011;17906;47.684;10.806;2024-01-25T13:12:01;0.47;;;0.30;;
16737;SDS011;17906;47.684;10.806;2024-01-25T13:14:29;0.23;;;0.10;;
16737;SDS011;17906;47.684;10.806;2024-01-25T13:16:56;0.20;;;0.10;;
16737;SDS011;17906;47.684;10.806;2024-01-25T13:19:23;1.17;;;0.60;;
16737;SDS011;17906;47.684;10.806;2024-01-25T13:21:49;1.53;;;0.50;;
16737;SDS011;17906;47.684;10.806;2024-01-25T13:24:16;1.87;;;0.77;;
16737;SDS011;17906;47.684;10.806;2024-01-25T13:26:44;0.43;;;0.30;;
16737;SDS011;17906;47.684;10.806;2024-01-25T13:29:11;1.57;;;0.63;;
16737;SDS011;17906;47.684;10.806;2024-01-25T13:31:40;0.43;;;0.20;;
16737;SDS011;17906;47.684;10.806;2024-01-25T13:34:06;1.20;;;0.30;;
16737;SDS011;17906;47.684;10.806;2024-01-25T13:36:33;0.70;;;0.20;;
16737;SDS011;17906;47.684;10.806;2024-01-25T13:38:59;1.50;;;0.47;;
16737;SDS011;17906;47.684;10.806;2024-01-25T13:41:26;2.60;;;1.23;;
16737;SDS011;17906;47.684;10.806;2024-01-25T13:43:52;2.33;;;1.10;;
16737;SDS011;17906;47.684;10.806;2024-01-25T13:46:19;1.67;;;0.97;;
16737;SDS011;17906;47.684;10.806;2024-01-25T13:48:47;0.50;;;0.30;;
16737;SDS011;17906;47.684;10.806;2024-01-25T13:51:14;0.47;;;0.20;;
16737;SDS011;17906;47.684;10.806;2024-01-25T13:53:40;2.10;;;0.40;;
16737;SDS011;17906;47.684;10.806;2024-01-25T13:56:07;0.70;;;0.30;;
16737;SDS011;17906;47.684;10.806;2024-01-25T13:58:32;1.03;;;0.10;;
16737;SDS011;17906;47.684;10.806;2024-01-25T14:00:59;0.80;;;0.20;;
16737;SDS011;17906;47.684;10.806;2024-01-25T14:03:25;1.20;;;0.70;;
16737;SDS011;17906;47.684;10.806;2024-01-25T14:05:54;0.50;;;0.27;;
16737;SDS011;17906;47.684;10.806;2024-01-25T14:08:22;1.70;;;0.87;;
16737;SDS011;17906;47.684;10.806;2024-01-25T14:10:48;3.77;;;1.97;;
16737;SDS011;17906;47.684;10.806;2024-01-25T14:13:15;2.20;;;1.40;;
16737;SDS011;17906;47.684;10.806;2024-01-25T14:15:42;6.93;;;3.20;;
16737;SDS011;17906;47.684;10.806;2024-01-25T14:18:08;2.37;;;1.70;;
16737;SDS011;17906;47.684;10.806;2024-01-25T14:20:35;1.87;;;1.03;;
16737;SDS011;17906;47.684;10.806;2024-01-25T14:23:04;2.50;;;0.97;;
16737;SDS011;17906;47.684;10.806;2024-01-25T14:25:30;1.67;;;1.10;;
16737;SDS011;17906;47.684;10.806;2024-01-25T14:27:57;0.73;;;0.60;;
16737;SDS011;17906;47.684;10.806;2024-01-25T14:30:24;2.27;;;1.20;;
16737;SDS011;17906;47.684;10.806;2024-01-25T14:32:50;1.47;;;0.90;;